createdAt,value
2019-05-06T00:00:27.449Z,100325.05
2019-05-06T00:02:56.891Z,100317.80
2019-05-06T00:05:26.278Z,100318.23
2019-05-06T00:07:55.647Z,100317.81
2019-05-06T00:10:35.246Z,100318.06
2019-05-06T00:13:04.837Z,100317.16
2019-05-06T00:15:34.518Z,100319.47
2019-05-06T00:18:04.838Z,100315.77
2019-05-06T00:20:35.344Z,100315.87
2019-05-06T00:23:06.505Z,100316.54
2019-05-06T00:25:53.594Z,100312.09
2019-05-06T00:28:39.806Z,100315.42
2019-05-06T00:31:14.047Z,100312.27
2019-05-06T00:33:44.298Z,100319.03
2019-05-06T00:36:14.154Z,100314.09
2019-05-06T00:38:45.291Z,100314.11
2019-05-06T00:41:21.972Z,100319.19
2019-05-06T00:43:51.347Z,100319.37
2019-05-06T00:46:21.082Z,100321.06
2019-05-06T00:48:50.463Z,100318.24
2019-05-06T00:51:19.829Z,100320.90
2019-05-06T00:54:03.995Z,100314.92
2019-05-06T00:56:33.972Z,100314.80
2019-05-06T00:59:03.840Z,100317.77
2019-05-06T01:01:34.504Z,100319.06
2019-05-06T01:04:05.196Z,100314.58
2019-05-06T01:06:34.768Z,100318.21
2019-05-06T01:09:08.429Z,100317.77
2019-05-06T01:11:37.875Z,100330.08
2019-05-06T01:14:14.849Z,100318.05
2019-05-06T01:16:44.307Z,100321.92
2019-05-06T01:19:14.293Z,100321.08
2019-05-06T01:21:44.765Z,100319.08
2019-05-06T01:24:14.799Z,100317.09
2019-05-06T01:26:44.722Z,100313.70
2019-05-06T01:29:14.685Z,100313.51
2019-05-06T01:31:46.174Z,100315.74
2019-05-06T01:34:15.141Z,100315.09
2019-05-06T01:36:44.513Z,100312.91
2019-05-06T01:39:31.685Z,100314.67
2019-05-06T01:42:04.469Z,100317.40
2019-05-06T01:44:34.071Z,100317.11
2019-05-06T01:47:03.874Z,100316.67
2019-05-06T01:49:34.048Z,100319.44
2019-05-06T01:52:04.072Z,100317.26
2019-05-06T01:54:34.517Z,100324.00
2019-05-06T01:57:04.567Z,100325.89
2019-05-06T01:59:34.586Z,100327.16
2019-05-06T02:02:05.324Z,100327.13
2019-05-06T02:04:34.981Z,100322.41
2019-05-06T02:07:04.358Z,100322.17
2019-05-06T02:09:34.277Z,100319.17
2019-05-06T02:12:04.951Z,100314.94
2019-05-06T02:14:34.453Z,100316.70
2019-05-06T02:17:04.015Z,100319.48
2019-05-06T02:19:34.871Z,100315.05
2019-05-06T02:22:05.902Z,100311.41
2019-05-06T02:24:37.021Z,100309.44
2019-05-06T02:27:07.038Z,100307.81
2019-05-06T02:29:38.338Z,100309.72
2019-05-06T02:32:30.937Z,100308.75
2019-05-06T02:34:58.296Z,100312.61
2019-05-06T02:37:38.358Z,100311.64
2019-05-06T02:40:24.201Z,100311.26
2019-05-06T02:42:54.769Z,100315.18
2019-05-06T02:45:24.018Z,100313.81
2019-05-06T02:48:04.409Z,100310.43
2019-05-06T02:50:46.161Z,100315.47
2019-05-06T02:53:17.185Z,100315.85
2019-05-06T02:56:05.921Z,100314.67
2019-05-06T02:58:35.281Z,100315.42
2019-05-06T03:01:04.843Z,100314.63
2019-05-06T03:03:34.277Z,100315.88
2019-05-06T03:06:04.518Z,100311.88
2019-05-06T03:08:34.067Z,100311.72
2019-05-06T03:11:04.321Z,100308.88
2019-05-06T03:13:34.344Z,100310.48
2019-05-06T03:16:05.963Z,100302.73
2019-05-06T03:18:35.511Z,100305.29
2019-05-06T03:21:06.510Z,100306.42
2019-05-06T03:23:37.557Z,100306.82
2019-05-06T03:26:07.112Z,100300.39
2019-05-06T03:28:36.597Z,100303.64
2019-05-06T03:31:07.832Z,100302.94
2019-05-06T03:33:55.340Z,100313.31
2019-05-06T03:36:18.379Z,100314.86
2019-05-06T03:38:42.853Z,100315.49
2019-05-06T03:41:13.683Z,100313.20
2019-05-06T03:43:43.778Z,100305.11
2019-05-06T03:46:14.953Z,100301.03
2019-05-06T03:48:48.637Z,100299.89
2019-05-06T03:51:18.232Z,100305.13
2019-05-06T03:53:47.922Z,100313.33
2019-05-06T03:56:19.836Z,100310.94
2019-05-06T03:58:53.772Z,100310.33
2019-05-06T04:01:24.187Z,100304.32
2019-05-06T04:03:57.256Z,100306.61
2019-05-06T04:06:25.540Z,100310.68
2019-05-06T04:08:55.559Z,100306.47
2019-05-06T04:11:26.100Z,100308.89
2019-05-06T04:13:56.803Z,100298.35
2019-05-06T04:16:40.114Z,100295.20
2019-05-06T04:19:15.413Z,100299.14
2019-05-06T04:21:55.674Z,100295.70
2019-05-06T04:24:43.104Z,100282.83
2019-05-06T04:27:53.463Z,100266.91
2019-05-06T04:30:24.349Z,100274.00
2019-05-06T04:32:53.381Z,100281.02
2019-05-06T04:35:23.160Z,100285.78
2019-05-06T04:37:53.934Z,100287.86
2019-05-06T04:40:24.006Z,100291.48
2019-05-06T04:42:54.021Z,100294.06
2019-05-06T04:45:23.874Z,100298.66
2019-05-06T04:47:53.990Z,100295.95
2019-05-06T04:50:24.382Z,100298.37
2019-05-06T04:53:04.783Z,100295.33
2019-05-06T04:55:36.062Z,100302.34
2019-05-06T04:58:07.116Z,100301.86
2019-05-06T05:00:37.894Z,100301.86
2019-05-06T05:03:07.338Z,100299.89
2019-05-06T05:05:36.805Z,100302.17
2019-05-06T05:08:06.447Z,100301.56
2019-05-06T05:10:59.565Z,100307.30
2019-05-06T05:13:46.739Z,100320.42
2019-05-06T05:16:23.846Z,100325.04
2019-05-06T05:19:07.174Z,100320.78
2019-05-06T05:21:36.536Z,100327.76
2019-05-06T05:24:05.973Z,100324.28
2019-05-06T05:26:36.972Z,100321.70
2019-05-06T05:29:06.683Z,100325.20
2019-05-06T05:31:36.460Z,100327.28
2019-05-06T05:34:05.908Z,100325.39
2019-05-06T05:36:35.277Z,100320.16
2019-05-06T05:39:06.536Z,100321.75
2019-05-06T05:41:37.393Z,100326.25
2019-05-06T05:44:22.647Z,100328.08
2019-05-06T05:46:52.539Z,100328.37
2019-05-06T05:49:29.600Z,100325.97
2019-05-06T05:51:59.396Z,100329.62
2019-05-06T05:54:28.766Z,100322.78
2019-05-06T05:56:58.223Z,100325.51
2019-05-06T05:59:27.840Z,100318.95
2019-05-06T06:01:57.210Z,100320.56
2019-05-06T06:04:26.665Z,100318.35
2019-05-06T06:06:56.064Z,100322.05
2019-05-06T06:09:27.345Z,100323.23
2019-05-06T06:11:58.856Z,100326.57
2019-05-06T06:14:43.780Z,100329.84
2019-05-06T06:17:32.545Z,100331.21
2019-05-06T06:20:19.536Z,100336.88
2019-05-06T06:22:49.040Z,100326.02
2019-05-06T06:25:18.483Z,100320.73
2019-05-06T06:27:51.872Z,100323.38
2019-05-06T06:30:33.024Z,100316.95
2019-05-06T06:33:02.654Z,100321.31
2019-05-06T06:35:33.815Z,100319.23
2019-05-06T06:38:04.832Z,100324.81
2019-05-06T06:40:34.262Z,100322.70
2019-05-06T06:43:05.475Z,100326.60
2019-05-06T06:45:35.223Z,100331.80
2019-05-06T06:48:04.940Z,100331.42
2019-05-06T06:50:34.342Z,100324.72
2019-05-06T06:53:03.807Z,100322.68
2019-05-06T06:55:33.182Z,100320.13
2019-05-06T06:58:04.825Z,100318.45
2019-05-06T07:00:36.688Z,100317.43
2019-05-06T07:03:26.278Z,100321.59
2019-05-06T07:06:06.598Z,100313.92
2019-05-06T07:08:37.664Z,100316.70
2019-05-06T07:11:07.372Z,100319.69
2019-05-06T07:13:38.363Z,100320.35
2019-05-06T07:16:08.047Z,100322.78
2019-05-06T07:18:37.425Z,100319.45
2019-05-06T07:21:08.460Z,100315.02
2019-05-06T07:23:37.866Z,100310.73
2019-05-06T07:26:07.260Z,100312.81
2019-05-06T07:28:36.646Z,100313.12
2019-05-06T07:31:20.778Z,100322.59
2019-05-06T07:33:37.582Z,100324.13
2019-05-06T07:36:06.967Z,100328.59
2019-05-06T07:38:36.413Z,100326.34
2019-05-06T07:41:07.469Z,100324.29
2019-05-06T07:43:42.068Z,100330.29
2019-05-06T07:46:15.915Z,100329.23
2019-05-06T07:48:45.305Z,100312.72
2019-05-06T07:51:14.680Z,100327.68
2019-05-06T07:53:44.062Z,100320.58
2019-05-06T07:56:13.444Z,100329.64
2019-05-06T07:58:43.511Z,100321.36
2019-05-06T08:01:13.794Z,100318.14
2019-05-06T08:03:43.576Z,100315.73
2019-05-06T08:06:13.388Z,100312.44
2019-05-06T08:08:43.549Z,100311.20
2019-05-06T08:11:13.223Z,100315.59
2019-05-06T08:13:43.424Z,100310.14
2019-05-06T08:16:13.354Z,100317.28
2019-05-06T08:18:42.872Z,100311.51
2019-05-06T08:21:13.955Z,100314.77
2019-05-06T08:23:44.987Z,100306.64
2019-05-06T08:26:17.568Z,100309.73
2019-05-06T08:28:45.476Z,100305.81
2019-05-06T08:31:16.813Z,100302.25
2019-05-06T08:33:46.610Z,100308.64
2019-05-06T08:36:23.859Z,100303.74
2019-05-06T08:38:57.585Z,100302.28
2019-05-06T08:41:27.815Z,100304.19
2019-05-06T08:43:57.537Z,100303.16
2019-05-06T08:46:26.903Z,100305.57
2019-05-06T08:48:56.342Z,100304.42
2019-05-06T08:51:43.336Z,100300.30
2019-05-06T08:54:17.290Z,100299.41
2019-05-06T08:56:46.810Z,100304.19
2019-05-06T08:59:16.490Z,100296.68
2019-05-06T09:01:50.084Z,100301.34
2019-05-06T09:04:19.528Z,100293.86
2019-05-06T09:06:49.055Z,100292.89
2019-05-06T09:09:18.469Z,100297.46
2019-05-06T09:11:48.468Z,100287.50
2019-05-06T09:14:18.551Z,100287.06
2019-05-06T09:16:53.069Z,100285.48
2019-05-06T09:19:20.066Z,100284.97
2019-05-06T09:21:49.458Z,100283.45
2019-05-06T09:24:19.092Z,100278.66
2019-05-06T09:26:52.817Z,100271.51
2019-05-06T09:29:29.524Z,100278.02
2019-05-06T09:32:16.473Z,100275.89
2019-05-06T09:34:52.832Z,100275.00
2019-05-06T09:37:24.079Z,100276.64
2019-05-06T09:39:53.595Z,100275.75
2019-05-06T09:42:23.358Z,100278.11
2019-05-06T09:44:54.190Z,100278.84
2019-05-06T09:47:25.889Z,100279.29
2019-05-06T09:49:55.279Z,100282.23
2019-05-06T09:52:25.112Z,100278.14
2019-05-06T09:55:03.271Z,100285.70
2019-05-06T09:57:34.505Z,100285.48
2019-05-06T10:00:06.225Z,100283.95
2019-05-06T10:02:35.623Z,100280.91
2019-05-06T10:05:07.076Z,100287.33
2019-05-06T10:07:36.437Z,100284.78
2019-05-06T10:10:07.277Z,100285.97
2019-05-06T10:12:36.666Z,100291.79
2019-05-06T10:15:06.730Z,100288.27
2019-05-06T10:17:36.246Z,100286.31
2019-05-06T10:20:07.613Z,100285.25
2019-05-06T10:22:37.042Z,100283.30
2019-05-06T10:25:06.822Z,100279.01
2019-05-06T10:27:38.112Z,100275.16
2019-05-06T10:30:12.601Z,100271.63
2019-05-06T10:32:43.653Z,100273.27
2019-05-06T10:35:13.441Z,100268.70
2019-05-06T10:38:14.399Z,100278.10
2019-05-06T10:41:02.887Z,100280.89
2019-05-06T10:43:28.411Z,100277.39
2019-05-06T10:46:00.889Z,100283.10
2019-05-06T10:48:28.899Z,100277.94
2019-05-06T10:50:59.948Z,100278.14
2019-05-06T10:53:29.332Z,100281.11
2019-05-06T10:56:02.289Z,100282.29
2019-05-06T10:58:32.692Z,100278.31
2019-05-06T11:01:04.106Z,100282.09
2019-05-06T11:03:33.484Z,100285.22
2019-05-06T11:06:02.863Z,100285.72
2019-05-06T11:08:32.648Z,100291.42
2019-05-06T11:11:14.976Z,100286.17
2019-05-06T11:13:33.234Z,100295.43
2019-05-06T11:16:03.413Z,100286.10
2019-05-06T11:18:33.593Z,100283.13
2019-05-06T11:21:03.627Z,100279.14
2019-05-06T11:23:33.864Z,100279.02
2019-05-06T11:26:04.063Z,100275.42
2019-05-06T11:28:43.909Z,100271.30
2019-05-06T11:31:27.329Z,100267.86
2019-05-06T11:34:07.481Z,100266.03
2019-05-06T11:36:46.969Z,100265.23
2019-05-06T11:39:16.368Z,100269.75
2019-05-06T11:42:01.611Z,100265.44
2019-05-06T11:44:16.876Z,100267.13
2019-05-06T11:46:46.250Z,100269.28
2019-05-06T11:49:15.649Z,100269.04
2019-05-06T11:51:45.341Z,100267.37
2019-05-06T11:54:20.692Z,100259.91
2019-05-06T11:56:51.303Z,100261.94
2019-05-06T11:59:18.343Z,100257.05
2019-05-06T12:01:49.388Z,100264.23
2019-05-06T12:04:18.799Z,100260.53
2019-05-06T12:06:48.158Z,100258.77
2019-05-06T12:09:17.549Z,100257.64
2019-05-06T12:11:47.009Z,100263.09
2019-05-06T12:14:16.425Z,100251.36
2019-05-06T12:16:45.797Z,100250.27
2019-05-06T12:19:15.198Z,100252.00
2019-05-06T12:21:44.610Z,100247.63
2019-05-06T12:24:14.052Z,100244.40
2019-05-06T12:26:43.580Z,100244.89
2019-05-06T12:29:13.017Z,100244.89
2019-05-06T12:31:42.738Z,100244.01
2019-05-06T12:34:14.513Z,100244.84
2019-05-06T12:36:43.286Z,100236.31
2019-05-06T12:39:19.137Z,100239.47
2019-05-06T12:41:53.480Z,100240.09
2019-05-06T12:44:23.538Z,100235.64
2019-05-06T12:47:13.431Z,100234.67
2019-05-06T12:49:43.009Z,100237.14
2019-05-06T12:52:12.769Z,100235.55
2019-05-06T12:54:43.145Z,100232.04
2019-05-06T12:57:12.779Z,100219.48
2019-05-06T12:59:42.763Z,100224.59
2019-05-06T13:02:13.251Z,100221.12
2019-05-06T13:04:55.335Z,100206.73
2019-05-06T13:07:15.567Z,100210.42
2019-05-06T13:09:45.536Z,100213.70
2019-05-06T13:12:16.664Z,100202.91
2019-05-06T13:14:46.107Z,100196.61
2019-05-06T13:17:17.144Z,100199.00
2019-05-06T13:19:46.511Z,100194.29
2019-05-06T13:22:17.533Z,100183.56
2019-05-06T13:24:46.918Z,100185.89
2019-05-06T13:27:17.939Z,100184.37
2019-05-06T13:29:47.559Z,100170.59
2019-05-06T13:32:18.598Z,100178.19
2019-05-06T13:34:47.964Z,100159.68
2019-05-06T13:37:17.464Z,100170.83
2019-05-06T13:39:46.894Z,100174.77
2019-05-06T13:42:17.920Z,100170.84
2019-05-06T13:44:47.320Z,100172.05
2019-05-06T13:47:22.911Z,100167.68
2019-05-06T13:49:55.070Z,100161.41
2019-05-06T13:52:25.041Z,100156.54
2019-05-06T13:54:54.439Z,100148.59
2019-05-06T13:57:23.817Z,100141.73
2019-05-06T13:59:53.656Z,100147.27
2019-05-06T14:02:28.470Z,100141.78
2019-05-06T14:04:57.865Z,100142.00
2019-05-06T14:07:27.270Z,100140.58
2019-05-06T14:09:56.663Z,100143.00
2019-05-06T14:12:26.058Z,100135.81
2019-05-06T14:14:55.437Z,100136.73
2019-05-06T14:17:24.821Z,100133.20
2019-05-06T14:19:54.215Z,100126.20
2019-05-06T14:22:24.008Z,100123.45
2019-05-06T14:25:01.440Z,100125.94
2019-05-06T14:27:32.777Z,100121.17
2019-05-06T14:30:22.639Z,100120.41
2019-05-06T14:32:52.719Z,100121.16
2019-05-06T14:35:23.057Z,100111.41
2019-05-06T14:37:52.948Z,100115.05
2019-05-06T14:40:24.305Z,100116.09
2019-05-06T14:42:54.182Z,100117.67
2019-05-06T14:45:24.306Z,100108.42
2019-05-06T14:47:54.323Z,100111.24
2019-05-06T14:50:31.166Z,100115.17
2019-05-06T14:52:55.520Z,100109.95
2019-05-06T14:55:29.194Z,100114.75
2019-05-06T14:57:58.589Z,100120.11
2019-05-06T15:00:27.973Z,100116.22
2019-05-06T15:02:57.347Z,100124.19
2019-05-06T15:05:26.739Z,100126.98
2019-05-06T15:07:56.118Z,100127.67
2019-05-06T15:10:26.607Z,100144.80
2019-05-06T15:12:56.123Z,100147.25
2019-05-06T15:15:25.577Z,100157.44
2019-05-06T15:17:54.989Z,100149.36
2019-05-06T15:20:24.776Z,100161.50
2019-05-06T15:22:55.095Z,100166.09
2019-05-06T15:25:24.913Z,100164.97
2019-05-06T15:27:54.886Z,100177.02
2019-05-06T15:30:29.331Z,100167.19
2019-05-06T15:32:58.752Z,100177.45
2019-05-06T15:35:45.672Z,100191.95
2019-05-06T15:38:16.687Z,100192.52
2019-05-06T15:40:46.126Z,100194.62
2019-05-06T15:43:15.487Z,100197.69
2019-05-06T15:45:45.215Z,100196.93
2019-05-06T15:48:14.925Z,100193.91
2019-05-06T15:50:45.956Z,100200.45
2019-05-06T15:53:15.495Z,100193.92
2019-05-06T15:55:44.889Z,100188.09
2019-05-06T15:58:14.296Z,100188.95
2019-05-06T16:00:43.999Z,100187.48
2019-05-06T16:03:13.778Z,100185.45
2019-05-06T16:05:43.811Z,100185.80
2019-05-06T16:08:13.583Z,100184.45
2019-05-06T16:10:51.977Z,100183.44
2019-05-06T16:13:14.098Z,100191.73
2019-05-06T16:15:43.816Z,100188.45
2019-05-06T16:18:13.200Z,100191.72
2019-05-06T16:20:42.677Z,100190.30
2019-05-06T16:23:16.093Z,100193.89
2019-05-06T16:25:45.535Z,100195.28
2019-05-06T16:28:14.889Z,100185.38
2019-05-06T16:30:44.566Z,100196.90
2019-05-06T16:33:15.323Z,100197.59
2019-05-06T16:35:45.625Z,100200.02
2019-05-06T16:38:15.408Z,100200.88
2019-05-06T16:40:45.463Z,100195.22
2019-05-06T16:43:15.056Z,100196.22
2019-05-06T16:45:45.446Z,100198.66
2019-05-06T16:48:15.040Z,100197.55
2019-05-06T16:50:44.416Z,100190.14
2019-05-06T16:53:13.831Z,100198.13
2019-05-06T16:56:02.082Z,100201.71
2019-05-06T16:58:32.933Z,100199.59
2019-05-06T17:01:03.248Z,100202.25
2019-05-06T17:03:43.539Z,100200.80
2019-05-06T17:06:22.931Z,100199.81
2019-05-06T17:08:52.861Z,100199.11
2019-05-06T17:11:27.924Z,100197.23
2019-05-06T17:13:53.833Z,100195.34
2019-05-06T17:16:23.304Z,100196.70
2019-05-06T17:18:56.520Z,100197.97
2019-05-06T17:21:24.669Z,100201.83
2019-05-06T17:23:54.105Z,100198.94
2019-05-06T17:26:24.233Z,100198.95
2019-05-06T17:28:55.296Z,100195.03
2019-05-06T17:31:38.326Z,100187.30
2019-05-06T17:34:12.826Z,100187.32
2019-05-06T17:36:42.674Z,100186.06
2019-05-06T17:39:12.655Z,100182.98
2019-05-06T17:41:48.232Z,100181.76
2019-05-06T17:44:13.443Z,100182.75
2019-05-06T17:47:02.677Z,100184.18
2019-05-06T17:49:39.135Z,100177.58
2019-05-06T17:52:10.178Z,100176.78
2019-05-06T17:54:39.888Z,100182.37
2019-05-06T17:57:09.340Z,100182.05
2019-05-06T17:59:38.777Z,100179.44
2019-05-06T18:02:22.821Z,100177.62
2019-05-06T18:04:53.289Z,100180.00
2019-05-06T18:07:23.572Z,100184.44
2019-05-06T18:09:52.992Z,100186.17
2019-05-06T18:12:23.196Z,100186.49
2019-05-06T18:14:53.505Z,100187.13
2019-05-06T18:17:23.020Z,100188.35
2019-05-06T18:19:52.753Z,100187.48
2019-05-06T18:22:22.737Z,100188.75
2019-05-06T18:24:52.654Z,100191.48
2019-05-06T18:27:22.708Z,100186.21
2019-05-06T18:29:53.238Z,100184.15
2019-05-06T18:32:23.455Z,100188.91
2019-05-06T18:34:52.931Z,100187.36
2019-05-06T18:37:23.318Z,100185.86
2019-05-06T18:39:53.109Z,100179.41
2019-05-06T18:42:23.650Z,100180.19
2019-05-06T18:44:53.353Z,100183.40
2019-05-06T18:47:23.498Z,100177.78
2019-05-06T18:49:52.886Z,100179.75
2019-05-06T18:52:22.859Z,100182.20
2019-05-06T18:54:52.719Z,100183.36
2019-05-06T18:57:22.679Z,100181.22
2019-05-06T18:59:53.290Z,100185.89
2019-05-06T19:02:23.217Z,100188.66
2019-05-06T19:04:54.236Z,100185.58
2019-05-06T19:07:23.709Z,100189.34
2019-05-06T19:09:54.786Z,100188.94
2019-05-06T19:12:31.745Z,100190.92
2019-05-06T19:14:55.329Z,100193.19
2019-05-06T19:17:25.063Z,100190.09
2019-05-06T19:19:54.448Z,100194.02
2019-05-06T19:22:23.872Z,100188.55
2019-05-06T19:24:53.310Z,100191.04
2019-05-06T19:27:24.892Z,100190.22
2019-05-06T19:29:54.594Z,100191.00
2019-05-06T19:32:25.208Z,100193.73
2019-05-06T19:34:54.597Z,100196.22
2019-05-06T19:37:23.999Z,100199.86
2019-05-06T19:39:53.391Z,100201.41
2019-05-06T19:42:22.908Z,100200.61
2019-05-06T19:44:52.819Z,100200.93
2019-05-06T19:47:22.607Z,100201.76
2019-05-06T19:49:53.251Z,100204.77
2019-05-06T19:52:24.994Z,100206.81
2019-05-06T19:54:56.727Z,100203.02
2019-05-06T19:57:26.169Z,100207.09
2019-05-06T19:59:55.555Z,100205.42
2019-05-06T20:02:25.812Z,100209.70
2019-05-06T20:04:57.104Z,100205.39
2019-05-06T20:07:28.403Z,100210.70
2019-05-06T20:10:04.869Z,100212.59
2019-05-06T20:12:59.511Z,100211.98
2019-05-06T20:15:35.286Z,100209.48
2019-05-06T20:18:06.556Z,100207.98
2019-05-06T20:20:36.740Z,100213.08
2019-05-06T20:23:06.662Z,100215.72
2019-05-06T20:25:37.179Z,100212.75
2019-05-06T20:28:06.852Z,100208.88
2019-05-06T20:30:36.244Z,100212.35
2019-05-06T20:33:05.704Z,100210.42
2019-05-06T20:35:35.076Z,100210.73
2019-05-06T20:38:04.734Z,100212.76
2019-05-06T20:40:34.205Z,100209.95
2019-05-06T20:43:16.617Z,100211.03
2019-05-06T20:45:35.456Z,100206.87
2019-05-06T20:48:05.197Z,100217.02
2019-05-06T20:50:34.603Z,100211.88
2019-05-06T20:53:03.989Z,100211.67
2019-05-06T20:55:35.744Z,100214.80
2019-05-06T20:58:04.869Z,100210.45
2019-05-06T21:00:34.249Z,100212.75
2019-05-06T21:03:03.615Z,100217.14
2019-05-06T21:05:33.003Z,100208.36
2019-05-06T21:08:02.984Z,100214.30
2019-05-06T21:10:33.270Z,100215.92
2019-05-06T21:13:03.028Z,100207.48
2019-05-06T21:15:33.083Z,100208.12
2019-05-06T21:18:04.389Z,100202.90
2019-05-06T21:20:34.076Z,100200.05
2019-05-06T21:23:03.446Z,100196.56
2019-05-06T21:25:33.334Z,100191.05
2019-05-06T21:28:03.169Z,100192.16
2019-05-06T21:30:32.739Z,100186.07
2019-05-06T21:33:02.146Z,100187.66
2019-05-06T21:35:33.124Z,100196.01
2019-05-06T21:38:02.777Z,100186.38
2019-05-06T21:40:32.419Z,100185.23
2019-05-06T21:43:02.320Z,100191.14
2019-05-06T21:45:33.144Z,100185.86
2019-05-06T21:48:03.068Z,100182.06
2019-05-06T21:50:33.179Z,100184.16
2019-05-06T21:53:03.419Z,100185.41
2019-05-06T21:55:32.869Z,100188.94
2019-05-06T21:58:02.555Z,100188.50
2019-05-06T22:00:40.049Z,100186.80
2019-05-06T22:03:09.452Z,100184.41
2019-05-06T22:05:38.863Z,100185.72
2019-05-06T22:08:08.236Z,100185.44
2019-05-06T22:10:37.650Z,100180.20
2019-05-06T22:13:07.030Z,100176.69
2019-05-06T22:15:36.866Z,100174.89
2019-05-06T22:18:06.303Z,100173.19
2019-05-06T22:20:37.563Z,100177.73
2019-05-06T22:23:07.219Z,100171.67
2019-05-06T22:25:36.893Z,100173.05
2019-05-06T22:28:06.271Z,100164.38
2019-05-06T22:30:35.990Z,100175.22
2019-05-06T22:33:05.368Z,100169.79
2019-05-06T22:35:34.752Z,100170.06
2019-05-06T22:38:04.146Z,100171.36
2019-05-06T22:40:33.518Z,100171.20
2019-05-06T22:43:03.268Z,100165.82
2019-05-06T22:45:33.076Z,100169.66
2019-05-06T22:48:04.583Z,100169.61
2019-05-06T22:50:34.070Z,100164.92
2019-05-06T22:53:03.440Z,100169.59
2019-05-06T22:55:33.049Z,100166.23
2019-05-06T22:58:02.840Z,100167.38
2019-05-06T23:00:34.191Z,100167.38
2019-05-06T23:03:05.540Z,100171.30
2019-05-06T23:05:34.917Z,100169.03
2019-05-06T23:08:04.320Z,100166.19
2019-05-06T23:10:33.963Z,100172.37
2019-05-06T23:13:03.356Z,100171.47
2019-05-06T23:15:34.203Z,100169.77
2019-05-06T23:18:03.991Z,100168.10
2019-05-06T23:20:33.354Z,100166.21
2019-05-06T23:23:04.753Z,100166.17
2019-05-06T23:25:33.866Z,100166.91
2019-05-06T23:28:03.248Z,100164.47
2019-05-06T23:30:33.422Z,100160.52
2019-05-06T23:33:02.935Z,100158.41
2019-05-06T23:35:32.313Z,100160.02
2019-05-06T23:38:56.484Z,100156.77
2019-05-06T23:42:22.703Z,100154.45
2019-05-06T23:45:46.548Z,100162.59
2019-05-06T23:49:12.907Z,100162.82
2019-05-06T23:52:37.075Z,100152.33
2019-05-06T23:56:02.768Z,100150.08
2019-05-06T23:58:32.411Z,100147.59
